sensor_id;sensor_type;location;lat;lon;timestamp;P1;durP1;ratioP1;P2;durP2;ratioP2
19848;SDS011;10085;51.120;6.956;2023-04-23T00:04:45;6.95;;;4.57;;
19848;SDS011;10085;51.120;6.956;2023-04-23T00:09:51;5.57;;;4.10;;
19848;SDS011;10085;51.120;6.956;2023-04-23T00:14:59;6.00;;;4.35;;
19848;SDS011;10085;51.120;6.956;2023-04-23T00:20:05;5.70;;;4.05;;
19848;SDS011;10085;51.120;6.956;2023-04-23T00:25:09;6.25;;;3.92;;
19848;SDS011;10085;51.120;6.956;2023-04-23T00:30:12;4.97;;;3.92;;
19848;SDS011;10085;51.120;6.956;2023-04-23T00:35:18;5.50;;;4.05;;
19848;SDS011;10085;51.120;6.956;2023-04-23T00:40:22;6.95;;;4.50;;
19848;SDS011;10085;51.120;6.956;2023-04-23T00:45:25;5.85;;;4.38;;
19848;SDS011;10085;51.120;6.956;2023-04-23T00:50:29;6.25;;;4.50;;
19848;SDS011;10085;51.120;6.956;2023-04-23T00:55:32;7.10;;;4.72;;
19848;SDS011;10085;51.120;6.956;2023-04-23T01:00:36;7.05;;;5.10;;
19848;SDS011;10085;51.120;6.956;2023-04-23T01:05:44;6.65;;;4.53;;
19848;SDS011;10085;51.120;6.956;2023-04-23T01:10:46;6.18;;;4.43;;
19848;SDS011;10085;51.120;6.956;2023-04-23T01:15:50;7.10;;;4.70;;
19848;SDS011;10085;51.120;6.956;2023-04-23T01:20:54;6.38;;;4.70;;
19848;SDS011;10085;51.120;6.956;2023-04-23T01:25:58;6.72;;;4.40;;
19848;SDS011;10085;51.120;6.956;2023-04-23T01:31:01;6.75;;;4.43;;
19848;SDS011;10085;51.120;6.956;2023-04-23T01:36:05;6.82;;;4.65;;
19848;SDS011;10085;51.120;6.956;2023-04-23T01:41:09;7.97;;;5.00;;
19848;SDS011;10085;51.120;6.956;2023-04-23T01:46:12;7.05;;;4.70;;
19848;SDS011;10085;51.120;6.956;2023-04-23T01:51:15;6.57;;;4.88;;
19848;SDS011;10085;51.120;6.956;2023-04-23T01:56:19;6.50;;;4.47;;
19848;SDS011;10085;51.120;6.956;2023-04-23T02:01:25;6.43;;;4.85;;
19848;SDS011;10085;51.120;6.956;2023-04-23T02:06:44;7.60;;;4.78;;
19848;SDS011;10085;51.120;6.956;2023-04-23T02:11:49;7.07;;;5.00;;
19848;SDS011;10085;51.120;6.956;2023-04-23T02:16:52;6.78;;;4.93;;
19848;SDS011;10085;51.120;6.956;2023-04-23T02:21:55;6.63;;;4.53;;
19848;SDS011;10085;51.120;6.956;2023-04-23T02:26:59;6.15;;;4.60;;
19848;SDS011;10085;51.120;6.956;2023-04-23T02:32:02;6.93;;;4.75;;
19848;SDS011;10085;51.120;6.956;2023-04-23T02:37:05;6.63;;;4.72;;
19848;SDS011;10085;51.120;6.956;2023-04-23T02:42:09;8.05;;;5.15;;
19848;SDS011;10085;51.120;6.956;2023-04-23T02:47:12;10.23;;;4.90;;
19848;SDS011;10085;51.120;6.956;2023-04-23T02:52:15;7.82;;;5.00;;
19848;SDS011;10085;51.120;6.956;2023-04-23T02:57:19;7.10;;;5.03;;
19848;SDS011;10085;51.120;6.956;2023-04-23T03:02:22;6.10;;;4.30;;
19848;SDS011;10085;51.120;6.956;2023-04-23T03:07:25;6.90;;;4.63;;
19848;SDS011;10085;51.120;6.956;2023-04-23T03:12:29;7.07;;;5.10;;
19848;SDS011;10085;51.120;6.956;2023-04-23T03:17:33;14.20;;;7.00;;
19848;SDS011;10085;51.120;6.956;2023-04-23T03:22:37;9.18;;;5.50;;
19848;SDS011;10085;51.120;6.956;2023-04-23T03:27:41;8.98;;;5.90;;
19848;SDS011;10085;51.120;6.956;2023-04-23T03:32:44;10.57;;;6.55;;
19848;SDS011;10085;51.120;6.956;2023-04-23T03:37:48;7.18;;;5.18;;
19848;SDS011;10085;51.120;6.956;2023-04-23T03:42:52;11.68;;;7.43;;
19848;SDS011;10085;51.120;6.956;2023-04-23T03:48:03;10.07;;;6.43;;
19848;SDS011;10085;51.120;6.956;2023-04-23T03:53:07;12.65;;;7.85;;
19848;SDS011;10085;51.120;6.956;2023-04-23T03:58:34;12.27;;;6.68;;
19848;SDS011;10085;51.120;6.956;2023-04-23T04:03:37;11.55;;;7.45;;
19848;SDS011;10085;51.120;6.956;2023-04-23T04:08:40;11.52;;;6.57;;
19848;SDS011;10085;51.120;6.956;2023-04-23T04:13:44;11.95;;;6.85;;
19848;SDS011;10085;51.120;6.956;2023-04-23T04:18:47;9.02;;;5.65;;
19848;SDS011;10085;51.120;6.956;2023-04-23T04:23:50;9.27;;;5.72;;
19848;SDS011;10085;51.120;6.956;2023-04-23T04:28:55;10.48;;;6.70;;
19848;SDS011;10085;51.120;6.956;2023-04-23T04:33:58;9.52;;;5.85;;
19848;SDS011;10085;51.120;6.956;2023-04-23T04:39:01;14.05;;;8.20;;
19848;SDS011;10085;51.120;6.956;2023-04-23T04:44:05;11.35;;;6.97;;
19848;SDS011;10085;51.120;6.956;2023-04-23T04:49:08;8.75;;;5.65;;
19848;SDS011;10085;51.120;6.956;2023-04-23T04:54:11;12.50;;;7.35;;
19848;SDS011;10085;51.120;6.956;2023-04-23T04:59:16;9.25;;;5.45;;
19848;SDS011;10085;51.120;6.956;2023-04-23T05:04:18;11.18;;;7.03;;
19848;SDS011;10085;51.120;6.956;2023-04-23T05:09:21;9.98;;;6.10;;
19848;SDS011;10085;51.120;6.956;2023-04-23T05:14:25;10.00;;;6.32;;
19848;SDS011;10085;51.120;6.956;2023-04-23T05:19:29;8.30;;;5.25;;
19848;SDS011;10085;51.120;6.956;2023-04-23T05:24:32;11.60;;;5.70;;
19848;SDS011;10085;51.120;6.956;2023-04-23T05:29:36;7.07;;;4.80;;
19848;SDS011;10085;51.120;6.956;2023-04-23T05:34:39;11.48;;;6.72;;
19848;SDS011;10085;51.120;6.956;2023-04-23T05:39:42;9.75;;;6.07;;
19848;SDS011;10085;51.120;6.956;2023-04-23T05:44:46;8.20;;;5.80;;
19848;SDS011;10085;51.120;6.956;2023-04-23T05:49:49;6.63;;;4.60;;
19848;SDS011;10085;51.120;6.956;2023-04-23T05:54:52;6.97;;;4.88;;
19848;SDS011;10085;51.120;6.956;2023-04-23T05:59:56;6.45;;;4.60;;
19848;SDS011;10085;51.120;6.956;2023-04-23T06:04:59;5.90;;;4.30;;
19848;SDS011;10085;51.120;6.956;2023-04-23T06:10:02;6.90;;;4.68;;
19848;SDS011;10085;51.120;6.956;2023-04-23T06:15:08;5.63;;;4.07;;
19848;SDS011;10085;51.120;6.956;2023-04-23T06:20:11;5.22;;;3.85;;
19848;SDS011;10085;51.120;6.956;2023-04-23T06:25:14;5.53;;;4.22;;
19848;SDS011;10085;51.120;6.956;2023-04-23T06:30:18;5.35;;;4.07;;
19848;SDS011;10085;51.120;6.956;2023-04-23T06:35:21;5.53;;;4.05;;
19848;SDS011;10085;51.120;6.956;2023-04-23T06:40:24;6.70;;;3.70;;
19848;SDS011;10085;51.120;6.956;2023-04-23T06:45:28;5.15;;;3.75;;
19848;SDS011;10085;51.120;6.956;2023-04-23T06:50:32;4.50;;;3.72;;
19848;SDS011;10085;51.120;6.956;2023-04-23T06:55:35;5.32;;;3.85;;
19848;SDS011;10085;51.120;6.956;2023-04-23T07:00:39;5.85;;;3.95;;
19848;SDS011;10085;51.120;6.956;2023-04-23T07:05:42;5.40;;;4.00;;
19848;SDS011;10085;51.120;6.956;2023-04-23T07:10:45;4.53;;;3.60;;
19848;SDS011;10085;51.120;6.956;2023-04-23T07:15:49;6.93;;;3.80;;
19848;SDS011;10085;51.120;6.956;2023-04-23T07:20:52;3.80;;;3.20;;
19848;SDS011;10085;51.120;6.956;2023-04-23T07:25:55;6.13;;;3.80;;
19848;SDS011;10085;51.120;6.956;2023-04-23T07:30:59;4.40;;;3.60;;
19848;SDS011;10085;51.120;6.956;2023-04-23T07:36:03;5.95;;;3.70;;
19848;SDS011;10085;51.120;6.956;2023-04-23T07:41:06;5.10;;;3.70;;
19848;SDS011;10085;51.120;6.956;2023-04-23T07:46:10;5.10;;;3.65;;
19848;SDS011;10085;51.120;6.956;2023-04-23T07:51:13;4.22;;;3.20;;
19848;SDS011;10085;51.120;6.956;2023-04-23T07:56:16;5.07;;;3.20;;
19848;SDS011;10085;51.120;6.956;2023-04-23T08:01:20;4.88;;;3.53;;
19848;SDS011;10085;51.120;6.956;2023-04-23T08:06:23;4.75;;;3.50;;
19848;SDS011;10085;51.120;6.956;2023-04-23T08:11:27;4.78;;;4.00;;
19848;SDS011;10085;51.120;6.956;2023-04-23T08:16:31;5.63;;;3.70;;
19848;SDS011;10085;51.120;6.956;2023-04-23T08:21:38;6.20;;;3.85;;
19848;SDS011;10085;51.120;6.956;2023-04-23T08:26:41;5.45;;;4.30;;
19848;SDS011;10085;51.120;6.956;2023-04-23T08:31:45;10.32;;;4.43;;
19848;SDS011;10085;51.120;6.956;2023-04-23T08:36:48;7.47;;;4.32;;
19848;SDS011;10085;51.120;6.956;2023-04-23T08:41:52;5.85;;;4.32;;
19848;SDS011;10085;51.120;6.956;2023-04-23T08:46:58;5.28;;;4.32;;
19848;SDS011;10085;51.120;6.956;2023-04-23T08:52:06;4.93;;;4.38;;
19848;SDS011;10085;51.120;6.956;2023-04-23T08:57:14;13.90;;;4.95;;
19848;SDS011;10085;51.120;6.956;2023-04-23T09:02:19;11.85;;;5.10;;
19848;SDS011;10085;51.120;6.956;2023-04-23T09:07:22;13.38;;;4.43;;
19848;SDS011;10085;51.120;6.956;2023-04-23T09:12:25;14.32;;;4.93;;
19848;SDS011;10085;51.120;6.956;2023-04-23T09:17:30;11.23;;;4.40;;
19848;SDS011;10085;51.120;6.956;2023-04-23T09:22:37;10.13;;;4.40;;
19848;SDS011;10085;51.120;6.956;2023-04-23T09:27:48;12.88;;;4.35;;
19848;SDS011;10085;51.120;6.956;2023-04-23T09:32:52;13.75;;;4.15;;
19848;SDS011;10085;51.120;6.956;2023-04-23T09:37:55;7.82;;;4.50;;
19848;SDS011;10085;51.120;6.956;2023-04-23T09:42:59;6.95;;;4.35;;
19848;SDS011;10085;51.120;6.956;2023-04-23T09:48:17;12.40;;;4.88;;
19848;SDS011;10085;51.120;6.956;2023-04-23T09:53:22;10.95;;;3.92;;
19848;SDS011;10085;51.120;6.956;2023-04-23T09:58:25;7.95;;;3.70;;
19848;SDS011;10085;51.120;6.956;2023-04-23T10:09:08;5.55;;;3.53;;
19848;SDS011;10085;51.120;6.956;2023-04-23T10:14:11;9.15;;;3.78;;
19848;SDS011;10085;51.120;6.956;2023-04-23T10:19:14;11.25;;;4.00;;
19848;SDS011;10085;51.120;6.956;2023-04-23T10:24:19;6.72;;;4.18;;
19848;SDS011;10085;51.120;6.956;2023-04-23T10:29:25;7.35;;;3.92;;
19848;SDS011;10085;51.120;6.956;2023-04-23T10:34:29;6.43;;;4.13;;
19848;SDS011;10085;51.120;6.956;2023-04-23T10:39:34;8.80;;;3.97;;
19848;SDS011;10085;51.120;6.956;2023-04-23T10:44:40;7.97;;;3.92;;
19848;SDS011;10085;51.120;6.956;2023-04-23T10:55:25;8.93;;;3.90;;
19848;SDS011;10085;51.120;6.956;2023-04-23T11:00:40;9.15;;;4.10;;
19848;SDS011;10085;51.120;6.956;2023-04-23T11:05:46;7.65;;;3.58;;
19848;SDS011;10085;51.120;6.956;2023-04-23T11:10:54;5.38;;;3.72;;
19848;SDS011;10085;51.120;6.956;2023-04-23T11:27:05;6.20;;;3.75;;
19848;SDS011;10085;51.120;6.956;2023-04-23T11:32:08;5.78;;;3.75;;
19848;SDS011;10085;51.120;6.956;2023-04-23T11:37:19;5.75;;;3.50;;
19848;SDS011;10085;51.120;6.956;2023-04-23T11:42:23;4.57;;;3.55;;
19848;SDS011;10085;51.120;6.956;2023-04-23T11:47:28;5.07;;;3.40;;
19848;SDS011;10085;51.120;6.956;2023-04-23T11:52:33;5.03;;;3.60;;
19848;SDS011;10085;51.120;6.956;2023-04-23T11:57:43;4.72;;;3.47;;
19848;SDS011;10085;51.120;6.956;2023-04-23T12:02:49;4.93;;;3.28;;
19848;SDS011;10085;51.120;6.956;2023-04-23T12:07:53;4.72;;;3.10;;
19848;SDS011;10085;51.120;6.956;2023-04-23T12:12:58;4.65;;;3.22;;
19848;SDS011;10085;51.120;6.956;2023-04-23T12:18:18;3.15;;;2.78;;
19848;SDS011;10085;51.120;6.956;2023-04-23T12:23:43;4.60;;;3.33;;
19848;SDS011;10085;51.120;6.956;2023-04-23T12:28:48;4.00;;;2.85;;
19848;SDS011;10085;51.120;6.956;2023-04-23T12:33:57;3.65;;;2.70;;
19848;SDS011;10085;51.120;6.956;2023-04-23T12:39:19;4.65;;;2.90;;
19848;SDS011;10085;51.120;6.956;2023-04-23T12:44:24;4.47;;;3.03;;
19848;SDS011;10085;51.120;6.956;2023-04-23T12:49:27;4.43;;;3.00;;
19848;SDS011;10085;51.120;6.956;2023-04-23T12:54:31;4.28;;;2.80;;
19848;SDS011;10085;51.120;6.956;2023-04-23T12:59:38;4.40;;;3.30;;
19848;SDS011;10085;51.120;6.956;2023-04-23T13:04:42;5.22;;;2.60;;
19848;SDS011;10085;51.120;6.956;2023-04-23T13:09:45;4.93;;;2.83;;
19848;SDS011;10085;51.120;6.956;2023-04-23T13:14:49;3.03;;;2.65;;
19848;SDS011;10085;51.120;6.956;2023-04-23T13:19:51;3.17;;;1.92;;
19848;SDS011;10085;51.120;6.956;2023-04-23T13:24:54;4.05;;;2.70;;
19848;SDS011;10085;51.120;6.956;2023-04-23T13:29:59;3.38;;;2.72;;
19848;SDS011;10085;51.120;6.956;2023-04-23T13:35:02;3.78;;;2.70;;
19848;SDS011;10085;51.120;6.956;2023-04-23T13:40:06;4.95;;;2.85;;
19848;SDS011;10085;51.120;6.956;2023-04-23T13:45:11;4.03;;;2.60;;
19848;SDS011;10085;51.120;6.956;2023-04-23T13:50:15;3.35;;;2.70;;
19848;SDS011;10085;51.120;6.956;2023-04-23T13:55:18;2.80;;;2.38;;
19848;SDS011;10085;51.120;6.956;2023-04-23T14:00:22;3.50;;;2.70;;
19848;SDS011;10085;51.120;6.956;2023-04-23T14:05:24;3.60;;;2.60;;
19848;SDS011;10085;51.120;6.956;2023-04-23T14:10:27;4.22;;;2.28;;
19848;SDS011;10085;51.120;6.956;2023-04-23T14:15:31;3.78;;;2.42;;
19848;SDS011;10085;51.120;6.956;2023-04-23T14:20:35;2.92;;;2.60;;
19848;SDS011;10085;51.120;6.956;2023-04-23T14:25:39;3.70;;;2.70;;
19848;SDS011;10085;51.120;6.956;2023-04-23T14:30:43;2.55;;;2.20;;
19848;SDS011;10085;51.120;6.956;2023-04-23T14:35:49;3.58;;;2.58;;
19848;SDS011;10085;51.120;6.956;2023-04-23T14:40:51;4.47;;;2.50;;
19848;SDS011;10085;51.120;6.956;2023-04-23T14:45:56;2.63;;;1.90;;
19848;SDS011;10085;51.120;6.956;2023-04-23T14:50:58;2.97;;;1.95;;
19848;SDS011;10085;51.120;6.956;2023-04-23T14:56:01;2.35;;;1.98;;
19848;SDS011;10085;51.120;6.956;2023-04-23T15:01:05;3.55;;;2.30;;
19848;SDS011;10085;51.120;6.956;2023-04-23T15:06:08;2.25;;;2.00;;
19848;SDS011;10085;51.120;6.956;2023-04-23T15:11:11;3.10;;;2.22;;
19848;SDS011;10085;51.120;6.956;2023-04-23T15:16:23;3.17;;;2.47;;
19848;SDS011;10085;51.120;6.956;2023-04-23T15:21:48;3.65;;;2.53;;
19848;SDS011;10085;51.120;6.956;2023-04-23T15:26:51;3.20;;;2.47;;
19848;SDS011;10085;51.120;6.956;2023-04-23T15:31:56;3.38;;;2.50;;
19848;SDS011;10085;51.120;6.956;2023-04-23T15:36:59;2.60;;;2.35;;
19848;SDS011;10085;51.120;6.956;2023-04-23T15:42:02;2.83;;;2.40;;
19848;SDS011;10085;51.120;6.956;2023-04-23T15:47:07;3.28;;;2.67;;
19848;SDS011;10085;51.120;6.956;2023-04-23T15:52:10;3.63;;;2.78;;
19848;SDS011;10085;51.120;6.956;2023-04-23T15:57:12;4.35;;;2.72;;
19848;SDS011;10085;51.120;6.956;2023-04-23T16:02:16;4.40;;;2.88;;
19848;SDS011;10085;51.120;6.956;2023-04-23T16:07:20;3.83;;;2.75;;
19848;SDS011;10085;51.120;6.956;2023-04-23T16:12:22;4.30;;;2.72;;
19848;SDS011;10085;51.120;6.956;2023-04-23T16:17:28;4.63;;;2.75;;
19848;SDS011;10085;51.120;6.956;2023-04-23T16:22:31;5.65;;;2.90;;
19848;SDS011;10085;51.120;6.956;2023-04-23T16:27:34;4.00;;;2.88;;
19848;SDS011;10085;51.120;6.956;2023-04-23T16:32:39;5.13;;;3.28;;
19848;SDS011;10085;51.120;6.956;2023-04-23T16:37:42;5.38;;;2.90;;
19848;SDS011;10085;51.120;6.956;2023-04-23T16:42:48;9.38;;;3.30;;
19848;SDS011;10085;51.120;6.956;2023-04-23T16:47:52;5.53;;;2.90;;
19848;SDS011;10085;51.120;6.956;2023-04-23T16:52:55;7.97;;;3.20;;
19848;SDS011;10085;51.120;6.956;2023-04-23T16:57:58;5.75;;;2.90;;
19848;SDS011;10085;51.120;6.956;2023-04-23T17:03:02;7.70;;;3.13;;
19848;SDS011;10085;51.120;6.956;2023-04-23T17:08:05;6.55;;;2.85;;
19848;SDS011;10085;51.120;6.956;2023-04-23T17:13:08;4.75;;;2.67;;
19848;SDS011;10085;51.120;6.956;2023-04-23T17:18:12;4.82;;;3.05;;
19848;SDS011;10085;51.120;6.956;2023-04-23T17:23:14;6.22;;;2.85;;
19848;SDS011;10085;51.120;6.956;2023-04-23T17:28:17;7.70;;;3.20;;
19848;SDS011;10085;51.120;6.956;2023-04-23T17:33:22;6.32;;;3.08;;
19848;SDS011;10085;51.120;6.956;2023-04-23T17:38:25;6.53;;;3.00;;
19848;SDS011;10085;51.120;6.956;2023-04-23T17:43:29;4.80;;;3.00;;
19848;SDS011;10085;51.120;6.956;2023-04-23T17:48:36;5.40;;;2.75;;
19848;SDS011;10085;51.120;6.956;2023-04-23T17:53:39;3.72;;;2.72;;
19848;SDS011;10085;51.120;6.956;2023-04-23T17:58:42;6.35;;;2.60;;
19848;SDS011;10085;51.120;6.956;2023-04-23T18:03:47;3.25;;;2.53;;
19848;SDS011;10085;51.120;6.956;2023-04-23T18:08:52;3.78;;;2.58;;
19848;SDS011;10085;51.120;6.956;2023-04-23T18:13:54;8.05;;;3.13;;
19848;SDS011;10085;51.120;6.956;2023-04-23T18:18:58;4.63;;;2.80;;
19848;SDS011;10085;51.120;6.956;2023-04-23T18:24:01;5.20;;;3.13;;
19848;SDS011;10085;51.120;6.956;2023-04-23T18:29:04;3.92;;;2.72;;
19848;SDS011;10085;51.120;6.956;2023-04-23T18:34:08;3.88;;;2.88;;
19848;SDS011;10085;51.120;6.956;2023-04-23T18:39:11;7.43;;;3.10;;
19848;SDS011;10085;51.120;6.956;2023-04-23T18:44:14;4.43;;;2.78;;
19848;SDS011;10085;51.120;6.956;2023-04-23T18:49:35;6.00;;;2.90;;
19848;SDS011;10085;51.120;6.956;2023-04-23T18:54:39;3.95;;;2.67;;
19848;SDS011;10085;51.120;6.956;2023-04-23T18:59:44;4.53;;;2.72;;
19848;SDS011;10085;51.120;6.956;2023-04-23T19:04:48;4.00;;;3.00;;
19848;SDS011;10085;51.120;6.956;2023-04-23T19:09:51;4.72;;;2.95;;
19848;SDS011;10085;51.120;6.956;2023-04-23T19:14:53;4.40;;;2.75;;
19848;SDS011;10085;51.120;6.956;2023-04-23T19:19:57;4.30;;;3.10;;
19848;SDS011;10085;51.120;6.956;2023-04-23T19:25:06;3.70;;;2.70;;
19848;SDS011;10085;51.120;6.956;2023-04-23T19:30:10;7.07;;;2.78;;
19848;SDS011;10085;51.120;6.956;2023-04-23T19:35:14;4.28;;;3.10;;
19848;SDS011;10085;51.120;6.956;2023-04-23T19:40:17;4.07;;;2.58;;
19848;SDS011;10085;51.120;6.956;2023-04-23T19:45:20;3.75;;;2.60;;
19848;SDS011;10085;51.120;6.956;2023-04-23T19:50:24;3.53;;;2.85;;
19848;SDS011;10085;51.120;6.956;2023-04-23T19:55:27;5.38;;;2.60;;
19848;SDS011;10085;51.120;6.956;2023-04-23T20:00:30;4.30;;;2.85;;
19848;SDS011;10085;51.120;6.956;2023-04-23T20:05:35;3.80;;;2.90;;
19848;SDS011;10085;51.120;6.956;2023-04-23T20:10:38;4.25;;;2.83;;
19848;SDS011;10085;51.120;6.956;2023-04-23T20:15:40;3.58;;;2.50;;
19848;SDS011;10085;51.120;6.956;2023-04-23T20:20:44;4.25;;;2.80;;
19848;SDS011;10085;51.120;6.956;2023-04-23T20:25:47;3.78;;;2.80;;
19848;SDS011;10085;51.120;6.956;2023-04-23T20:30:50;3.85;;;2.88;;
19848;SDS011;10085;51.120;6.956;2023-04-23T20:35:54;5.10;;;2.80;;
19848;SDS011;10085;51.120;6.956;2023-04-23T20:40:59;4.03;;;2.80;;
19848;SDS011;10085;51.120;6.956;2023-04-23T20:46:05;6.95;;;2.85;;
19848;SDS011;10085;51.120;6.956;2023-04-23T20:51:11;4.47;;;2.92;;
19848;SDS011;10085;51.120;6.956;2023-04-23T20:56:15;3.45;;;2.65;;
19848;SDS011;10085;51.120;6.956;2023-04-23T21:01:19;3.55;;;2.75;;
19848;SDS011;10085;51.120;6.956;2023-04-23T21:06:23;3.92;;;2.90;;
19848;SDS011;10085;51.120;6.956;2023-04-23T21:11:25;3.53;;;2.40;;
19848;SDS011;10085;51.120;6.956;2023-04-23T21:16:28;3.60;;;2.70;;
19848;SDS011;10085;51.120;6.956;2023-04-23T21:21:32;6.35;;;2.92;;
19848;SDS011;10085;51.120;6.956;2023-04-23T21:26:35;4.93;;;3.00;;
19848;SDS011;10085;51.120;6.956;2023-04-23T21:31:41;4.70;;;3.00;;
19848;SDS011;10085;51.120;6.956;2023-04-23T21:36:47;5.82;;;3.03;;
19848;SDS011;10085;51.120;6.956;2023-04-23T21:41:50;6.53;;;3.13;;
19848;SDS011;10085;51.120;6.956;2023-04-23T21:46:53;5.78;;;3.47;;
19848;SDS011;10085;51.120;6.956;2023-04-23T21:51:57;4.82;;;3.33;;
19848;SDS011;10085;51.120;6.956;2023-04-23T21:57:00;4.10;;;2.80;;
19848;SDS011;10085;51.120;6.956;2023-04-23T22:02:03;5.07;;;3.03;;
19848;SDS011;10085;51.120;6.956;2023-04-23T22:07:08;5.97;;;2.88;;
19848;SDS011;10085;51.120;6.956;2023-04-23T22:12:12;6.65;;;3.00;;
19848;SDS011;10085;51.120;6.956;2023-04-23T22:17:15;4.85;;;3.05;;
19848;SDS011;10085;51.120;6.956;2023-04-23T22:22:20;3.70;;;2.67;;
19848;SDS011;10085;51.120;6.956;2023-04-23T22:27:23;3.42;;;2.53;;
19848;SDS011;10085;51.120;6.956;2023-04-23T22:38:40;5.72;;;2.60;;
19848;SDS011;10085;51.120;6.956;2023-04-23T22:43:48;2.88;;;2.30;;
19848;SDS011;10085;51.120;6.956;2023-04-23T22:48:53;5.68;;;2.63;;
19848;SDS011;10085;51.120;6.956;2023-04-23T22:53:57;6.72;;;2.92;;
19848;SDS011;10085;51.120;6.956;2023-04-23T22:59:01;4.13;;;2.30;;
19848;SDS011;10085;51.120;6.956;2023-04-23T23:04:05;3.58;;;2.58;;
19848;SDS011;10085;51.120;6.956;2023-04-23T23:09:09;2.67;;;2.33;;
19848;SDS011;10085;51.120;6.956;2023-04-23T23:14:12;3.53;;;2.38;;
19848;SDS011;10085;51.120;6.956;2023-04-23T23:19:15;4.22;;;2.20;;
19848;SDS011;10085;51.120;6.956;2023-04-23T23:24:19;4.03;;;2.15;;
19848;SDS011;10085;51.120;6.956;2023-04-23T23:29:23;3.35;;;2.40;;
19848;SDS011;10085;51.120;6.956;2023-04-23T23:34:26;3.35;;;2.35;;
19848;SDS011;10085;51.120;6.956;2023-04-23T23:39:30;3.38;;;2.35;;
19848;SDS011;10085;51.120;6.956;2023-04-23T23:44:33;2.58;;;2.00;;
19848;SDS011;10085;51.120;6.956;2023-04-23T23:49:36;2.63;;;2.10;;
19848;SDS011;10085;51.120;6.956;2023-04-23T23:54:40;2.75;;;1.92;;
19848;SDS011;10085;51.120;6.956;2023-04-23T23:59:43;3.25;;;2.13;;
